createdAt,value
2019-03-21T00:00:26.224Z,101.00
2019-03-21T00:03:03.176Z,99.10
2019-03-21T00:05:41.294Z,91.55
2019-03-21T00:08:19.379Z,96.57
2019-03-21T00:11:42.056Z,103.45
2019-03-21T00:14:54.573Z,104.23
2019-03-21T00:17:43.500Z,128.32
2019-03-21T00:20:21.349Z,116.80
2019-03-21T00:22:58.170Z,120.17
2019-03-21T00:25:36.613Z,125.27
2019-03-21T00:28:13.710Z,129.95
2019-03-21T00:30:50.904Z,115.85
2019-03-21T00:33:27.819Z,111.92
2019-03-21T00:36:05.658Z,103.32
2019-03-21T00:38:43.560Z,105.85
2019-03-21T00:41:21.831Z,99.75
2019-03-21T00:43:58.925Z,90.75
2019-03-21T00:46:36.131Z,95.30
2019-03-21T00:49:14.152Z,93.72
2019-03-21T00:51:51.417Z,89.90
2019-03-21T00:54:28.418Z,95.57
2019-03-21T00:57:05.665Z,90.60
2019-03-21T00:59:42.566Z,86.67
2019-03-21T01:02:19.586Z,82.78
2019-03-21T01:04:57.119Z,85.53
2019-03-21T01:07:33.826Z,88.82
2019-03-21T01:10:12.763Z,80.25
2019-03-21T01:12:49.690Z,87.40
2019-03-21T01:15:27.251Z,93.47
2019-03-21T01:18:04.283Z,88.00
2019-03-21T01:20:40.999Z,86.22
2019-03-21T01:23:18.213Z,85.00
2019-03-21T01:25:56.255Z,91.32
2019-03-21T01:28:33.324Z,80.77
2019-03-21T01:31:12.143Z,80.67
2019-03-21T01:33:49.409Z,87.25
2019-03-21T01:36:27.466Z,85.15
2019-03-21T01:39:04.904Z,81.87
2019-03-21T01:41:41.922Z,86.17
2019-03-21T01:44:19.081Z,82.62
2019-03-21T01:46:56.138Z,88.03
2019-03-21T01:49:33.017Z,141.90
2019-03-21T01:52:10.039Z,91.65
2019-03-21T01:54:47.187Z,78.72
2019-03-21T01:57:24.478Z,84.77
2019-03-21T02:00:01.340Z,77.25
2019-03-21T02:02:38.308Z,84.42
2019-03-21T02:05:15.765Z,80.57
2019-03-21T02:07:52.800Z,82.50
2019-03-21T02:10:29.770Z,85.65
2019-03-21T02:13:07.076Z,80.53
2019-03-21T02:15:44.039Z,76.25
2019-03-21T02:18:21.021Z,86.55
2019-03-21T02:20:58.106Z,80.83
2019-03-21T02:23:37.502Z,71.92
2019-03-21T02:26:14.422Z,80.07
2019-03-21T02:28:51.518Z,77.27
2019-03-21T02:31:28.078Z,72.87
2019-03-21T02:34:04.855Z,74.97
2019-03-21T02:36:42.042Z,81.02
2019-03-21T02:39:18.689Z,72.35
2019-03-21T02:41:55.981Z,72.62
2019-03-21T02:44:33.151Z,68.33
2019-03-21T02:47:10.308Z,64.15
2019-03-21T02:49:47.023Z,61.45
2019-03-21T02:52:24.047Z,69.00
2019-03-21T02:55:00.958Z,71.05
2019-03-21T02:57:38.830Z,73.25
2019-03-21T03:00:18.662Z,66.45
2019-03-21T03:02:56.998Z,66.00
2019-03-21T03:05:35.738Z,71.65
2019-03-21T03:08:16.404Z,63.58
2019-03-21T03:10:55.513Z,61.15
2019-03-21T03:13:33.123Z,63.10
2019-03-21T03:16:10.399Z,65.70
2019-03-21T03:18:47.720Z,57.20
2019-03-21T03:21:25.269Z,61.20
2019-03-21T03:24:02.206Z,65.00
2019-03-21T03:26:39.436Z,63.83
2019-03-21T03:29:16.450Z,59.77
2019-03-21T03:31:56.613Z,61.05
2019-03-21T03:34:33.660Z,62.90
2019-03-21T03:37:10.444Z,58.98
2019-03-21T03:39:47.815Z,57.67
2019-03-21T03:42:24.766Z,58.58
2019-03-21T03:45:01.844Z,56.05
2019-03-21T03:47:38.940Z,60.05
2019-03-21T03:50:16.682Z,58.63
2019-03-21T03:52:53.877Z,58.58
2019-03-21T03:55:30.863Z,63.58
2019-03-21T03:58:09.353Z,58.05
2019-03-21T04:00:46.101Z,50.83
2019-03-21T04:03:23.370Z,55.70
2019-03-21T04:06:01.498Z,55.35
2019-03-21T04:08:38.463Z,56.02
2019-03-21T04:11:15.764Z,61.05
2019-03-21T04:13:52.839Z,58.52
2019-03-21T04:16:30.254Z,57.08
2019-03-21T04:19:07.017Z,56.30
2019-03-21T04:21:43.887Z,56.42
2019-03-21T04:24:21.033Z,48.40
2019-03-21T04:26:58.061Z,51.63
2019-03-21T04:29:34.851Z,49.70
2019-03-21T04:32:12.449Z,50.25
2019-03-21T04:34:49.233Z,45.67
2019-03-21T04:37:25.836Z,52.73
2019-03-21T04:40:20.693Z,52.17
2019-03-21T04:43:04.354Z,47.53
2019-03-21T04:45:41.553Z,51.18
2019-03-21T04:48:19.672Z,48.00
2019-03-21T04:50:56.682Z,50.50
2019-03-21T04:53:33.822Z,47.98
2019-03-21T04:56:10.394Z,56.55
2019-03-21T04:58:47.308Z,56.80
2019-03-21T05:01:23.846Z,48.08
2019-03-21T05:04:00.848Z,45.35
2019-03-21T05:06:37.848Z,44.73
2019-03-21T05:09:18.700Z,50.73
2019-03-21T05:11:55.483Z,48.17
2019-03-21T05:14:34.925Z,47.13
2019-03-21T05:17:13.316Z,55.33
2019-03-21T05:19:50.634Z,51.35
2019-03-21T05:22:28.964Z,50.12
2019-03-21T05:25:06.203Z,48.00
2019-03-21T05:27:44.903Z,46.42
2019-03-21T05:30:24.874Z,47.13
2019-03-21T05:33:01.961Z,43.50
2019-03-21T05:35:39.918Z,49.55
2019-03-21T05:38:17.487Z,44.45
2019-03-21T05:40:54.125Z,46.90
2019-03-21T05:43:34.148Z,43.42
2019-03-21T05:46:11.007Z,49.53
2019-03-21T05:48:47.989Z,47.55
2019-03-21T05:51:24.884Z,45.35
2019-03-21T05:54:02.072Z,43.17
2019-03-21T05:56:39.374Z,49.20
2019-03-21T05:59:16.485Z,40.75
2019-03-21T06:01:53.433Z,41.80
2019-03-21T06:04:30.211Z,44.38
2019-03-21T06:07:18.266Z,43.40
2019-03-21T06:09:55.248Z,39.13
2019-03-21T06:12:32.271Z,43.63
2019-03-21T06:15:09.578Z,43.98
2019-03-21T06:17:47.960Z,42.45
2019-03-21T06:21:00.234Z,44.85
2019-03-21T06:23:57.365Z,41.48
2019-03-21T06:26:47.295Z,44.77
2019-03-21T06:29:24.245Z,48.63
2019-03-21T06:32:01.387Z,44.15
2019-03-21T06:34:38.519Z,45.58
2019-03-21T06:37:15.528Z,40.60
2019-03-21T06:39:52.509Z,42.23
2019-03-21T06:42:29.381Z,42.20
2019-03-21T06:45:06.429Z,51.63
2019-03-21T06:47:43.239Z,42.83
2019-03-21T06:50:21.313Z,41.35
2019-03-21T06:52:58.364Z,38.65
2019-03-21T06:55:35.981Z,40.28
2019-03-21T06:58:14.221Z,37.95
2019-03-21T07:00:51.269Z,47.27
2019-03-21T07:03:28.203Z,44.25
2019-03-21T07:06:05.365Z,42.67
2019-03-21T07:08:42.717Z,41.68
2019-03-21T07:11:19.582Z,43.83
2019-03-21T07:13:56.459Z,42.35
2019-03-21T07:16:33.553Z,44.05
2019-03-21T07:19:10.940Z,41.77
2019-03-21T07:21:48.018Z,39.48
2019-03-21T07:24:25.342Z,42.10
2019-03-21T07:27:02.280Z,39.48
2019-03-21T07:29:39.536Z,41.98
2019-03-21T07:32:16.835Z,41.95
2019-03-21T07:34:53.870Z,39.23
2019-03-21T07:37:31.039Z,37.88
2019-03-21T07:40:09.446Z,37.42
2019-03-21T07:42:46.354Z,37.93
2019-03-21T07:45:24.341Z,42.15
2019-03-21T07:48:01.264Z,40.10
2019-03-21T07:50:37.967Z,37.08
2019-03-21T07:53:15.007Z,40.63
2019-03-21T07:55:51.834Z,41.80
2019-03-21T07:58:28.661Z,41.65
2019-03-21T08:01:07.097Z,39.15
2019-03-21T08:03:44.265Z,44.10
2019-03-21T08:06:21.279Z,41.05
2019-03-21T08:08:58.183Z,44.35
2019-03-21T08:11:35.241Z,39.35
2019-03-21T08:14:12.126Z,41.90
2019-03-21T08:16:49.310Z,38.85
2019-03-21T08:19:26.373Z,42.90
2019-03-21T08:22:03.881Z,39.70
2019-03-21T08:24:40.897Z,37.98
2019-03-21T08:27:17.941Z,45.20
2019-03-21T08:29:55.607Z,44.63
2019-03-21T08:32:32.984Z,45.75
2019-03-21T08:35:10.897Z,39.38
2019-03-21T08:37:47.874Z,37.10
2019-03-21T08:40:27.740Z,41.08
2019-03-21T08:43:05.688Z,39.18
2019-03-21T08:45:42.771Z,38.70
2019-03-21T08:48:19.811Z,36.38
2019-03-21T08:51:07.328Z,40.20
2019-03-21T08:53:35.605Z,38.85
2019-03-21T08:56:14.076Z,38.70
2019-03-21T08:58:51.192Z,41.15
2019-03-21T09:01:28.302Z,35.88
2019-03-21T09:04:05.171Z,39.38
2019-03-21T09:06:42.387Z,35.63
2019-03-21T09:09:19.621Z,42.50
2019-03-21T09:11:56.598Z,38.55
2019-03-21T09:14:33.479Z,40.78
2019-03-21T09:17:08.869Z,37.53
2019-03-21T09:19:46.313Z,39.53
2019-03-21T09:22:24.031Z,50.43
2019-03-21T09:25:00.711Z,39.30
2019-03-21T09:27:37.442Z,36.50
2019-03-21T09:30:14.786Z,37.78
2019-03-21T09:32:51.816Z,56.85
2019-03-21T09:35:29.051Z,41.20
2019-03-21T09:38:06.767Z,41.48
2019-03-21T09:40:43.522Z,40.33
2019-03-21T09:43:20.602Z,42.23
2019-03-21T09:45:57.682Z,44.50
2019-03-21T09:48:34.510Z,36.88
2019-03-21T09:51:11.811Z,37.13
2019-03-21T09:53:48.647Z,38.08
2019-03-21T09:56:25.720Z,35.83
2019-03-21T09:59:03.885Z,40.35
2019-03-21T10:01:41.091Z,49.15
2019-03-21T10:04:18.310Z,41.68
2019-03-21T10:06:55.323Z,43.20
2019-03-21T10:09:32.326Z,50.17
2019-03-21T10:12:09.510Z,61.98
2019-03-21T10:14:46.528Z,54.60
2019-03-21T10:17:24.095Z,50.12
2019-03-21T10:20:01.164Z,49.50
2019-03-21T10:22:38.175Z,49.10
2019-03-21T10:25:15.046Z,49.90
2019-03-21T10:27:51.971Z,52.45
2019-03-21T10:30:42.464Z,49.33
2019-03-21T10:33:21.165Z,40.75
2019-03-21T10:35:58.754Z,48.55
2019-03-21T10:38:35.768Z,43.78
2019-03-21T10:41:12.967Z,43.83
2019-03-21T10:43:49.925Z,42.60
2019-03-21T10:46:27.562Z,44.80
2019-03-21T10:49:04.345Z,41.30
2019-03-21T10:51:41.494Z,46.80
2019-03-21T10:54:18.585Z,43.52
2019-03-21T10:56:55.544Z,41.42
2019-03-21T10:59:32.638Z,38.08
2019-03-21T11:02:09.753Z,45.17
2019-03-21T11:04:46.564Z,41.08
2019-03-21T11:07:18.816Z,40.83
2019-03-21T11:09:56.051Z,43.60
2019-03-21T11:12:32.900Z,46.13
2019-03-21T11:15:10.339Z,41.63
2019-03-21T11:17:47.329Z,44.33
2019-03-21T11:20:37.918Z,47.03
2019-03-21T11:23:15.111Z,44.13
2019-03-21T11:25:52.306Z,49.10
2019-03-21T11:28:29.384Z,43.70
2019-03-21T11:31:06.350Z,51.48
2019-03-21T11:33:43.105Z,46.58
2019-03-21T11:36:20.283Z,50.80
2019-03-21T11:38:57.141Z,52.33
2019-03-21T11:41:33.895Z,55.12
2019-03-21T11:44:11.251Z,57.20
2019-03-21T11:46:48.738Z,51.88
2019-03-21T11:49:25.413Z,60.73
2019-03-21T11:52:02.429Z,56.60
2019-03-21T11:54:46.449Z,52.27
2019-03-21T11:57:23.407Z,54.70
2019-03-21T12:00:00.654Z,62.85
2019-03-21T12:02:37.514Z,56.70
2019-03-21T12:05:15.625Z,63.50
2019-03-21T12:07:52.852Z,59.88
2019-03-21T12:10:29.612Z,55.88
2019-03-21T12:13:06.917Z,62.38
2019-03-21T12:15:46.294Z,66.22
2019-03-21T12:18:23.708Z,61.02
2019-03-21T12:21:00.246Z,62.65
2019-03-21T12:23:37.261Z,56.35
2019-03-21T12:26:13.955Z,60.30
2019-03-21T12:28:51.001Z,62.08
2019-03-21T12:31:30.068Z,56.65
2019-03-21T12:34:06.604Z,60.73
2019-03-21T12:36:43.894Z,56.15
2019-03-21T12:39:20.963Z,66.07
2019-03-21T12:41:57.726Z,57.98
2019-03-21T12:44:35.435Z,66.42
2019-03-21T12:47:13.074Z,71.55
2019-03-21T12:49:50.331Z,65.92
2019-03-21T12:52:27.560Z,61.70
2019-03-21T12:55:04.605Z,63.30
2019-03-21T12:57:41.616Z,65.60
2019-03-21T13:00:22.155Z,63.30
2019-03-21T13:02:59.262Z,72.60
2019-03-21T13:05:36.354Z,61.88
2019-03-21T13:08:13.246Z,68.52
2019-03-21T13:10:50.137Z,68.75
2019-03-21T13:13:27.589Z,79.22
2019-03-21T13:16:04.494Z,62.53
2019-03-21T13:18:41.602Z,70.85
2019-03-21T13:21:18.731Z,72.80
2019-03-21T13:23:56.999Z,68.47
2019-03-21T13:26:33.939Z,81.63
2019-03-21T13:29:11.698Z,64.25
2019-03-21T13:31:48.882Z,70.60
2019-03-21T13:34:26.102Z,77.62
2019-03-21T13:37:03.152Z,80.83
2019-03-21T13:39:39.830Z,72.47
2019-03-21T13:42:16.955Z,82.12
2019-03-21T13:44:53.577Z,80.35
2019-03-21T13:47:30.692Z,79.50
2019-03-21T13:50:07.591Z,75.30
2019-03-21T13:52:45.796Z,85.90
2019-03-21T13:55:22.135Z,83.42
2019-03-21T13:57:59.712Z,70.90
2019-03-21T14:00:36.272Z,74.10
2019-03-21T14:03:24.330Z,76.67
2019-03-21T14:05:51.469Z,73.57
2019-03-21T14:08:29.279Z,63.58
2019-03-21T14:11:06.254Z,72.17
2019-03-21T14:13:43.981Z,60.95
2019-03-21T14:16:20.580Z,59.50
2019-03-21T14:18:57.421Z,65.97
2019-03-21T14:21:34.283Z,69.22
2019-03-21T14:24:11.550Z,66.33
2019-03-21T14:26:48.408Z,67.75
2019-03-21T14:29:25.135Z,60.20
2019-03-21T14:32:01.928Z,67.12
2019-03-21T14:34:38.948Z,63.00
2019-03-21T14:37:17.702Z,65.50
2019-03-21T14:39:54.542Z,69.55
2019-03-21T14:42:31.175Z,59.53
2019-03-21T14:45:08.763Z,65.60
2019-03-21T14:47:45.917Z,61.30
2019-03-21T14:50:22.875Z,58.85
2019-03-21T14:53:00.809Z,61.63
2019-03-21T14:55:47.149Z,63.95
2019-03-21T14:58:16.225Z,60.23
2019-03-21T15:00:53.497Z,57.83
2019-03-21T15:03:30.808Z,60.05
2019-03-21T15:06:08.091Z,55.63
2019-03-21T15:08:45.276Z,53.78
2019-03-21T15:11:23.119Z,55.50
2019-03-21T15:14:00.109Z,55.35
2019-03-21T15:16:37.412Z,58.25
2019-03-21T15:19:15.697Z,55.73
2019-03-21T15:21:52.749Z,56.50
2019-03-21T15:24:29.731Z,54.18
2019-03-21T15:27:07.099Z,59.65
2019-03-21T15:29:44.100Z,51.58
2019-03-21T15:32:21.010Z,55.00
2019-03-21T15:34:58.138Z,58.90
2019-03-21T15:37:35.276Z,56.58
2019-03-21T15:40:15.091Z,54.23
2019-03-21T15:42:52.007Z,51.80
2019-03-21T15:45:28.631Z,54.83
2019-03-21T15:48:09.941Z,52.85
2019-03-21T15:50:46.036Z,53.87
2019-03-21T15:53:22.799Z,60.23
2019-03-21T15:55:59.821Z,53.50
2019-03-21T15:58:36.682Z,59.70
2019-03-21T16:01:13.332Z,55.23
2019-03-21T16:03:50.718Z,59.33
2019-03-21T16:06:28.069Z,57.25
2019-03-21T16:09:04.831Z,54.20
2019-03-21T16:11:42.110Z,55.67
2019-03-21T16:14:18.678Z,57.93
2019-03-21T16:16:56.231Z,52.62
2019-03-21T16:19:33.339Z,56.48
2019-03-21T16:22:10.107Z,57.88
2019-03-21T16:24:47.462Z,52.95
2019-03-21T16:27:24.331Z,55.17
2019-03-21T16:30:01.679Z,54.73
2019-03-21T16:32:39.922Z,55.50
2019-03-21T16:35:16.982Z,64.35
2019-03-21T16:37:54.070Z,55.20
2019-03-21T16:40:30.658Z,52.10
2019-03-21T16:43:07.792Z,58.68
2019-03-21T16:45:45.003Z,53.65
2019-03-21T16:48:21.961Z,56.25
2019-03-21T16:50:59.242Z,52.45
2019-03-21T16:53:35.958Z,52.25
2019-03-21T16:56:13.335Z,52.55
2019-03-21T16:58:50.091Z,55.08
2019-03-21T17:01:27.277Z,54.25
2019-03-21T17:04:04.484Z,56.37
2019-03-21T17:06:41.839Z,53.23
2019-03-21T17:09:19.181Z,56.77
2019-03-21T17:11:55.865Z,49.93
2019-03-21T17:14:32.821Z,57.48
2019-03-21T17:17:10.016Z,53.65
2019-03-21T17:19:46.739Z,54.15
2019-03-21T17:22:24.678Z,58.25
2019-03-21T17:25:01.891Z,53.25
2019-03-21T17:27:39.866Z,62.10
2019-03-21T17:30:16.910Z,53.58
2019-03-21T17:32:54.075Z,59.10
2019-03-21T17:35:31.278Z,59.73
2019-03-21T17:38:09.575Z,52.73
2019-03-21T17:40:46.399Z,52.43
2019-03-21T17:43:29.436Z,51.60
2019-03-21T17:46:07.654Z,55.78
2019-03-21T17:48:44.316Z,52.70
2019-03-21T17:51:21.174Z,59.98
2019-03-21T17:53:58.283Z,58.95
2019-03-21T17:56:35.787Z,58.38
2019-03-21T17:59:13.071Z,61.98
2019-03-21T18:01:50.059Z,63.02
2019-03-21T18:04:27.980Z,61.63
2019-03-21T18:07:05.183Z,58.42
2019-03-21T18:09:42.309Z,61.13
2019-03-21T18:12:19.115Z,61.40
2019-03-21T18:14:56.299Z,55.40
2019-03-21T18:17:33.348Z,69.80
2019-03-21T18:20:10.741Z,69.32
2019-03-21T18:22:48.145Z,66.82
2019-03-21T18:25:24.950Z,68.57
2019-03-21T18:28:02.627Z,66.65
2019-03-21T18:30:40.281Z,60.28
2019-03-21T18:33:19.350Z,57.55
2019-03-21T18:35:56.538Z,62.10
2019-03-21T18:38:33.876Z,65.32
2019-03-21T18:41:10.546Z,67.95
2019-03-21T18:43:47.634Z,61.55
2019-03-21T18:46:24.511Z,63.28
2019-03-21T18:49:01.496Z,62.93
2019-03-21T18:51:39.863Z,70.30
2019-03-21T18:54:17.056Z,74.45
2019-03-21T18:56:54.274Z,62.55
2019-03-21T18:59:37.566Z,64.10
2019-03-21T19:02:14.446Z,66.97
2019-03-21T19:04:51.484Z,62.80
2019-03-21T19:07:28.602Z,67.40
2019-03-21T19:10:06.043Z,70.72
2019-03-21T19:12:43.169Z,63.78
2019-03-21T19:15:20.205Z,71.57
2019-03-21T19:17:56.925Z,74.32
2019-03-21T19:20:33.952Z,79.15
2019-03-21T19:23:11.466Z,62.27
2019-03-21T19:25:48.156Z,62.23
2019-03-21T19:28:25.377Z,57.93
2019-03-21T19:31:02.595Z,66.12
2019-03-21T19:33:39.619Z,65.20
2019-03-21T19:36:16.635Z,66.65
2019-03-21T19:38:53.508Z,68.22
2019-03-21T19:41:31.515Z,64.15
2019-03-21T19:44:08.383Z,75.20
2019-03-21T19:46:45.578Z,68.12
2019-03-21T19:49:22.350Z,70.90
2019-03-21T19:51:59.617Z,69.25
2019-03-21T19:54:36.488Z,70.28
2019-03-21T19:57:13.414Z,65.87
2019-03-21T19:59:50.135Z,67.58
2019-03-21T20:02:27.492Z,76.35
2019-03-21T20:05:04.559Z,77.53
2019-03-21T20:07:42.098Z,67.27
2019-03-21T20:10:19.836Z,73.30
2019-03-21T20:12:56.966Z,77.55
2019-03-21T20:15:34.477Z,71.28
2019-03-21T20:18:11.342Z,69.00
2019-03-21T20:20:49.728Z,82.30
2019-03-21T20:23:26.928Z,76.35
2019-03-21T20:26:04.248Z,76.62
2019-03-21T20:28:41.458Z,74.72
2019-03-21T20:31:19.425Z,76.77
2019-03-21T20:33:56.463Z,82.70
2019-03-21T20:36:33.425Z,82.65
2019-03-21T20:39:11.414Z,76.40
2019-03-21T20:41:48.653Z,71.42
2019-03-21T20:44:27.301Z,76.80
2019-03-21T20:47:04.529Z,72.05
2019-03-21T20:49:41.596Z,83.30
2019-03-21T20:52:19.058Z,74.17
2019-03-21T20:54:56.004Z,81.12
2019-03-21T20:57:33.135Z,74.42
2019-03-21T21:00:10.742Z,70.47
2019-03-21T21:02:48.159Z,74.17
2019-03-21T21:05:25.201Z,73.78
2019-03-21T21:08:03.075Z,75.42
2019-03-21T21:10:40.128Z,76.33
2019-03-21T21:13:16.829Z,80.22
2019-03-21T21:15:53.852Z,75.30
2019-03-21T21:18:31.132Z,83.20
2019-03-21T21:21:08.330Z,83.37
2019-03-21T21:23:46.158Z,80.70
2019-03-21T21:26:22.808Z,82.22
2019-03-21T21:29:00.386Z,77.08
2019-03-21T21:31:37.311Z,80.17
2019-03-21T21:34:13.982Z,80.07
2019-03-21T21:36:51.491Z,84.28
2019-03-21T21:39:28.527Z,90.47
2019-03-21T21:42:07.228Z,90.80
2019-03-21T21:44:43.863Z,93.82
2019-03-21T21:47:20.663Z,99.20
2019-03-21T21:49:57.852Z,98.25
2019-03-21T21:52:42.029Z,92.33
2019-03-21T21:55:13.915Z,94.17
2019-03-21T21:57:50.819Z,93.60
2019-03-21T22:00:27.993Z,96.95
2019-03-21T22:03:05.344Z,97.47
2019-03-21T22:05:42.136Z,94.47
2019-03-21T22:08:19.567Z,95.55
2019-03-21T22:10:57.289Z,97.27
2019-03-21T22:13:34.087Z,99.50
2019-03-21T22:16:11.245Z,93.17
2019-03-21T22:18:48.238Z,97.70
2019-03-21T22:21:25.337Z,100.15
2019-03-21T22:24:02.156Z,100.45
2019-03-21T22:26:39.098Z,96.50
2019-03-21T22:29:16.175Z,102.92
2019-03-21T22:31:53.697Z,102.55
2019-03-21T22:34:32.304Z,102.58
2019-03-21T22:37:09.205Z,95.92
2019-03-21T22:39:46.006Z,98.10
2019-03-21T22:42:23.068Z,106.60
2019-03-21T22:45:00.351Z,102.65
2019-03-21T22:47:36.838Z,106.55
2019-03-21T22:50:15.800Z,105.03
2019-03-21T22:52:52.773Z,100.55
2019-03-21T22:55:30.031Z,105.65
2019-03-21T22:58:06.964Z,96.32
2019-03-21T23:00:45.776Z,111.72
2019-03-21T23:03:23.500Z,100.72
2019-03-21T23:06:01.213Z,103.25
2019-03-21T23:08:38.134Z,106.22
2019-03-21T23:11:15.128Z,104.78
2019-03-21T23:13:54.348Z,105.37
2019-03-21T23:16:32.229Z,95.53
2019-03-21T23:19:09.123Z,100.45
2019-03-21T23:21:45.621Z,108.05
2019-03-21T23:24:22.997Z,110.40
2019-03-21T23:27:00.167Z,101.58
2019-03-21T23:29:36.856Z,107.47
2019-03-21T23:32:13.696Z,105.05
2019-03-21T23:34:51.702Z,105.37
2019-03-21T23:37:29.827Z,103.35
2019-03-21T23:40:06.663Z,101.20
2019-03-21T23:42:43.529Z,104.60
2019-03-21T23:45:20.508Z,102.60
2019-03-21T23:47:57.613Z,105.83
2019-03-21T23:50:35.450Z,108.80
2019-03-21T23:53:12.230Z,117.85
2019-03-21T23:55:49.216Z,117.15
2019-03-21T23:58:27.397Z,120.13
